sensor_id;sensor_type;location;lat;lon;timestamp;P1;durP1;ratioP1;P2;durP2;ratioP2
16577;SDS011;8401;52.528;13.340;2023-05-20T00:01:36;4.30;;;3.17;;
16577;SDS011;8401;52.528;13.340;2023-05-20T00:04:02;3.83;;;3.10;;
16577;SDS011;8401;52.528;13.340;2023-05-20T00:06:28;5.87;;;3.07;;
16577;SDS011;8401;52.528;13.340;2023-05-20T00:08:53;5.57;;;2.77;;
16577;SDS011;8401;52.528;13.340;2023-05-20T00:11:19;4.77;;;2.67;;
16577;SDS011;8401;52.528;13.340;2023-05-20T00:13:46;6.10;;;2.93;;
16577;SDS011;8401;52.528;13.340;2023-05-20T00:16:11;4.90;;;3.20;;
16577;SDS011;8401;52.528;13.340;2023-05-20T00:18:37;4.67;;;3.13;;
16577;SDS011;8401;52.528;13.340;2023-05-20T00:21:03;3.60;;;2.67;;
16577;SDS011;8401;52.528;13.340;2023-05-20T00:23:28;4.60;;;2.83;;
16577;SDS011;8401;52.528;13.340;2023-05-20T00:25:54;3.30;;;2.50;;
16577;SDS011;8401;52.528;13.340;2023-05-20T00:28:20;3.43;;;2.80;;
16577;SDS011;8401;52.528;13.340;2023-05-20T00:30:47;4.03;;;2.73;;
16577;SDS011;8401;52.528;13.340;2023-05-20T00:33:13;5.13;;;2.90;;
16577;SDS011;8401;52.528;13.340;2023-05-20T00:35:38;3.97;;;2.80;;
16577;SDS011;8401;52.528;13.340;2023-05-20T00:38:04;3.60;;;2.70;;
16577;SDS011;8401;52.528;13.340;2023-05-20T00:40:30;3.07;;;2.43;;
16577;SDS011;8401;52.528;13.340;2023-05-20T00:42:55;4.53;;;2.77;;
16577;SDS011;8401;52.528;13.340;2023-05-20T00:45:21;5.93;;;2.97;;
16577;SDS011;8401;52.528;13.340;2023-05-20T00:47:47;3.70;;;2.60;;
16577;SDS011;8401;52.528;13.340;2023-05-20T00:50:13;5.80;;;2.90;;
16577;SDS011;8401;52.528;13.340;2023-05-20T00:52:38;3.47;;;2.80;;
16577;SDS011;8401;52.528;13.340;2023-05-20T00:55:07;4.07;;;3.33;;
16577;SDS011;8401;52.528;13.340;2023-05-20T00:57:33;5.30;;;2.77;;
16577;SDS011;8401;52.528;13.340;2023-05-20T00:59:59;3.93;;;2.83;;
16577;SDS011;8401;52.528;13.340;2023-05-20T01:02:25;6.47;;;2.90;;
16577;SDS011;8401;52.528;13.340;2023-05-20T01:04:51;3.67;;;2.93;;
16577;SDS011;8401;52.528;13.340;2023-05-20T01:07:17;5.10;;;3.20;;
16577;SDS011;8401;52.528;13.340;2023-05-20T01:09:43;3.87;;;2.77;;
16577;SDS011;8401;52.528;13.340;2023-05-20T01:14:35;3.47;;;2.87;;
16577;SDS011;8401;52.528;13.340;2023-05-20T01:17:07;5.30;;;2.80;;
16577;SDS011;8401;52.528;13.340;2023-05-20T01:19:42;6.50;;;3.30;;
16577;SDS011;8401;52.528;13.340;2023-05-20T01:22:13;4.03;;;2.90;;
16577;SDS011;8401;52.528;13.340;2023-05-20T01:24:48;5.17;;;3.17;;
16577;SDS011;8401;52.528;13.340;2023-05-20T01:27:13;3.73;;;2.80;;
16577;SDS011;8401;52.528;13.340;2023-05-20T01:29:39;6.13;;;2.73;;
16577;SDS011;8401;52.528;13.340;2023-05-20T01:32:10;4.70;;;2.90;;
16577;SDS011;8401;52.528;13.340;2023-05-20T01:34:55;9.40;;;2.97;;
16577;SDS011;8401;52.528;13.340;2023-05-20T01:37:23;4.63;;;3.10;;
16577;SDS011;8401;52.528;13.340;2023-05-20T01:39:51;5.20;;;3.50;;
16577;SDS011;8401;52.528;13.340;2023-05-20T01:42:17;5.50;;;3.10;;
16577;SDS011;8401;52.528;13.340;2023-05-20T01:44:44;6.23;;;3.40;;
16577;SDS011;8401;52.528;13.340;2023-05-20T01:47:10;4.53;;;3.30;;
16577;SDS011;8401;52.528;13.340;2023-05-20T01:49:35;5.27;;;3.07;;
16577;SDS011;8401;52.528;13.340;2023-05-20T01:52:01;4.77;;;3.33;;
16577;SDS011;8401;52.528;13.340;2023-05-20T01:54:27;5.60;;;3.30;;
16577;SDS011;8401;52.528;13.340;2023-05-20T01:56:52;5.10;;;3.03;;
16577;SDS011;8401;52.528;13.340;2023-05-20T01:59:18;5.07;;;3.50;;
16577;SDS011;8401;52.528;13.340;2023-05-20T02:01:44;5.03;;;3.23;;
16577;SDS011;8401;52.528;13.340;2023-05-20T02:04:10;4.17;;;3.27;;
16577;SDS011;8401;52.528;13.340;2023-05-20T02:06:35;4.20;;;3.40;;
16577;SDS011;8401;52.528;13.340;2023-05-20T02:09:01;6.50;;;3.67;;
16577;SDS011;8401;52.528;13.340;2023-05-20T02:11:27;4.80;;;2.80;;
16577;SDS011;8401;52.528;13.340;2023-05-20T02:13:52;6.17;;;3.27;;
16577;SDS011;8401;52.528;13.340;2023-05-20T02:16:18;5.83;;;3.80;;
16577;SDS011;8401;52.528;13.340;2023-05-20T02:18:44;5.37;;;3.63;;
16577;SDS011;8401;52.528;13.340;2023-05-20T02:21:10;7.00;;;3.50;;
16577;SDS011;8401;52.528;13.340;2023-05-20T02:23:35;5.80;;;3.00;;
16577;SDS011;8401;52.528;13.340;2023-05-20T02:26:01;4.60;;;3.47;;
16577;SDS011;8401;52.528;13.340;2023-05-20T02:28:27;6.43;;;3.20;;
16577;SDS011;8401;52.528;13.340;2023-05-20T02:30:52;6.70;;;3.53;;
16577;SDS011;8401;52.528;13.340;2023-05-20T02:33:18;5.00;;;3.17;;
16577;SDS011;8401;52.528;13.340;2023-05-20T02:35:44;6.20;;;3.80;;
16577;SDS011;8401;52.528;13.340;2023-05-20T02:38:10;7.23;;;3.57;;
16577;SDS011;8401;52.528;13.340;2023-05-20T02:40:36;7.23;;;3.00;;
16577;SDS011;8401;52.528;13.340;2023-05-20T02:43:02;5.60;;;3.33;;
16577;SDS011;8401;52.528;13.340;2023-05-20T02:45:28;4.20;;;3.27;;
16577;SDS011;8401;52.528;13.340;2023-05-20T02:47:53;4.50;;;3.00;;
16577;SDS011;8401;52.528;13.340;2023-05-20T02:50:19;4.90;;;3.80;;
16577;SDS011;8401;52.528;13.340;2023-05-20T02:52:45;6.00;;;3.17;;
16577;SDS011;8401;52.528;13.340;2023-05-20T02:55:11;6.07;;;3.57;;
16577;SDS011;8401;52.528;13.340;2023-05-20T02:57:37;5.43;;;3.40;;
16577;SDS011;8401;52.528;13.340;2023-05-20T03:00:03;5.87;;;3.30;;
16577;SDS011;8401;52.528;13.340;2023-05-20T03:02:31;3.50;;;3.00;;
16577;SDS011;8401;52.528;13.340;2023-05-20T03:04:57;6.67;;;4.17;;
16577;SDS011;8401;52.528;13.340;2023-05-20T03:07:23;4.10;;;3.00;;
16577;SDS011;8401;52.528;13.340;2023-05-20T03:09:49;4.77;;;3.17;;
16577;SDS011;8401;52.528;13.340;2023-05-20T03:12:15;6.80;;;3.60;;
16577;SDS011;8401;52.528;13.340;2023-05-20T03:14:40;6.07;;;3.27;;
16577;SDS011;8401;52.528;13.340;2023-05-20T03:17:07;6.77;;;3.13;;
16577;SDS011;8401;52.528;13.340;2023-05-20T03:19:33;5.07;;;3.47;;
16577;SDS011;8401;52.528;13.340;2023-05-20T03:21:59;3.93;;;3.30;;
16577;SDS011;8401;52.528;13.340;2023-05-20T03:24:25;6.50;;;3.70;;
16577;SDS011;8401;52.528;13.340;2023-05-20T03:26:51;4.93;;;3.40;;
16577;SDS011;8401;52.528;13.340;2023-05-20T03:29:17;7.30;;;3.70;;
16577;SDS011;8401;52.528;13.340;2023-05-20T03:31:43;5.73;;;3.50;;
16577;SDS011;8401;52.528;13.340;2023-05-20T03:34:08;5.33;;;3.23;;
16577;SDS011;8401;52.528;13.340;2023-05-20T03:36:34;6.10;;;3.33;;
16577;SDS011;8401;52.528;13.340;2023-05-20T03:39:00;6.43;;;3.40;;
16577;SDS011;8401;52.528;13.340;2023-05-20T03:41:26;6.90;;;3.30;;
16577;SDS011;8401;52.528;13.340;2023-05-20T03:43:52;6.80;;;3.40;;
16577;SDS011;8401;52.528;13.340;2023-05-20T03:46:17;7.67;;;3.50;;
16577;SDS011;8401;52.528;13.340;2023-05-20T03:48:43;4.50;;;2.97;;
16577;SDS011;8401;52.528;13.340;2023-05-20T03:51:08;4.53;;;3.13;;
16577;SDS011;8401;52.528;13.340;2023-05-20T03:53:34;4.37;;;3.17;;
16577;SDS011;8401;52.528;13.340;2023-05-20T03:56:00;6.30;;;3.60;;
16577;SDS011;8401;52.528;13.340;2023-05-20T03:58:26;5.33;;;3.33;;
16577;SDS011;8401;52.528;13.340;2023-05-20T04:00:56;4.17;;;3.20;;
16577;SDS011;8401;52.528;13.340;2023-05-20T04:03:22;5.20;;;3.27;;
16577;SDS011;8401;52.528;13.340;2023-05-20T04:05:48;6.80;;;3.00;;
16577;SDS011;8401;52.528;13.340;2023-05-20T04:08:14;6.00;;;2.87;;
16577;SDS011;8401;52.528;13.340;2023-05-20T04:10:42;5.07;;;3.20;;
16577;SDS011;8401;52.528;13.340;2023-05-20T04:13:09;5.67;;;3.83;;
16577;SDS011;8401;52.528;13.340;2023-05-20T04:15:35;5.13;;;3.10;;
16577;SDS011;8401;52.528;13.340;2023-05-20T04:18:02;5.97;;;3.03;;
16577;SDS011;8401;52.528;13.340;2023-05-20T04:20:30;6.90;;;3.10;;
16577;SDS011;8401;52.528;13.340;2023-05-20T04:22:56;5.07;;;2.97;;
16577;SDS011;8401;52.528;13.340;2023-05-20T04:25:21;6.20;;;3.43;;
16577;SDS011;8401;52.528;13.340;2023-05-20T04:27:48;5.20;;;3.70;;
16577;SDS011;8401;52.528;13.340;2023-05-20T04:30:14;7.37;;;3.70;;
16577;SDS011;8401;52.528;13.340;2023-05-20T04:32:42;6.43;;;3.43;;
16577;SDS011;8401;52.528;13.340;2023-05-20T04:35:08;6.40;;;3.40;;
16577;SDS011;8401;52.528;13.340;2023-05-20T04:37:36;4.83;;;3.30;;
16577;SDS011;8401;52.528;13.340;2023-05-20T04:40:02;5.77;;;3.70;;
16577;SDS011;8401;52.528;13.340;2023-05-20T04:42:28;5.57;;;3.60;;
16577;SDS011;8401;52.528;13.340;2023-05-20T04:44:54;7.60;;;3.93;;
16577;SDS011;8401;52.528;13.340;2023-05-20T04:47:20;5.47;;;3.53;;
16577;SDS011;8401;52.528;13.340;2023-05-20T04:49:45;5.93;;;3.80;;
16577;SDS011;8401;52.528;13.340;2023-05-20T04:52:11;4.80;;;3.53;;
16577;SDS011;8401;52.528;13.340;2023-05-20T04:54:37;5.23;;;3.50;;
16577;SDS011;8401;52.528;13.340;2023-05-20T04:57:04;4.73;;;3.43;;
16577;SDS011;8401;52.528;13.340;2023-05-20T04:59:30;7.47;;;3.97;;
16577;SDS011;8401;52.528;13.340;2023-05-20T05:01:55;4.87;;;3.27;;
16577;SDS011;8401;52.528;13.340;2023-05-20T05:04:21;5.50;;;3.63;;
16577;SDS011;8401;52.528;13.340;2023-05-20T05:06:47;4.03;;;3.20;;
16577;SDS011;8401;52.528;13.340;2023-05-20T05:09:13;6.07;;;3.90;;
16577;SDS011;8401;52.528;13.340;2023-05-20T05:11:39;4.03;;;3.30;;
16577;SDS011;8401;52.528;13.340;2023-05-20T05:14:05;6.60;;;3.63;;
16577;SDS011;8401;52.528;13.340;2023-05-20T05:16:30;6.40;;;4.20;;
16577;SDS011;8401;52.528;13.340;2023-05-20T05:18:56;6.50;;;3.93;;
16577;SDS011;8401;52.528;13.340;2023-05-20T05:21:21;5.40;;;3.67;;
16577;SDS011;8401;52.528;13.340;2023-05-20T05:23:47;7.40;;;3.80;;
16577;SDS011;8401;52.528;13.340;2023-05-20T05:26:13;6.63;;;3.83;;
16577;SDS011;8401;52.528;13.340;2023-05-20T05:28:40;5.90;;;4.13;;
16577;SDS011;8401;52.528;13.340;2023-05-20T05:31:06;5.43;;;3.90;;
16577;SDS011;8401;52.528;13.340;2023-05-20T05:33:32;7.10;;;4.10;;
16577;SDS011;8401;52.528;13.340;2023-05-20T05:35:57;6.37;;;4.23;;
16577;SDS011;8401;52.528;13.340;2023-05-20T05:38:25;5.77;;;4.23;;
16577;SDS011;8401;52.528;13.340;2023-05-20T05:40:50;6.33;;;4.27;;
16577;SDS011;8401;52.528;13.340;2023-05-20T05:43:16;6.17;;;4.50;;
16577;SDS011;8401;52.528;13.340;2023-05-20T05:45:41;6.30;;;4.00;;
16577;SDS011;8401;52.528;13.340;2023-05-20T05:48:07;6.97;;;3.97;;
16577;SDS011;8401;52.528;13.340;2023-05-20T05:50:33;7.33;;;3.70;;
16577;SDS011;8401;52.528;13.340;2023-05-20T05:52:58;9.03;;;4.40;;
16577;SDS011;8401;52.528;13.340;2023-05-20T05:55:24;8.60;;;4.37;;
16577;SDS011;8401;52.528;13.340;2023-05-20T05:57:50;6.60;;;4.20;;
16577;SDS011;8401;52.528;13.340;2023-05-20T06:00:16;6.27;;;4.10;;
16577;SDS011;8401;52.528;13.340;2023-05-20T06:02:42;6.27;;;4.30;;
16577;SDS011;8401;52.528;13.340;2023-05-20T06:05:08;7.80;;;4.57;;
16577;SDS011;8401;52.528;13.340;2023-05-20T06:07:34;8.93;;;4.10;;
16577;SDS011;8401;52.528;13.340;2023-05-20T06:10:00;6.33;;;4.33;;
16577;SDS011;8401;52.528;13.340;2023-05-20T06:12:26;8.70;;;4.10;;
16577;SDS011;8401;52.528;13.340;2023-05-20T06:14:51;6.87;;;4.33;;
16577;SDS011;8401;52.528;13.340;2023-05-20T06:17:17;10.53;;;4.83;;
16577;SDS011;8401;52.528;13.340;2023-05-20T06:19:42;8.80;;;4.50;;
16577;SDS011;8401;52.528;13.340;2023-05-20T06:22:08;5.90;;;4.23;;
16577;SDS011;8401;52.528;13.340;2023-05-20T06:24:34;7.97;;;4.57;;
16577;SDS011;8401;52.528;13.340;2023-05-20T06:26:59;6.87;;;4.97;;
16577;SDS011;8401;52.528;13.340;2023-05-20T06:29:25;6.40;;;4.33;;
16577;SDS011;8401;52.528;13.340;2023-05-20T06:31:51;5.80;;;4.30;;
16577;SDS011;8401;52.528;13.340;2023-05-20T06:34:19;5.57;;;4.33;;
16577;SDS011;8401;52.528;13.340;2023-05-20T06:36:45;6.93;;;4.57;;
16577;SDS011;8401;52.528;13.340;2023-05-20T06:39:11;5.40;;;4.30;;
16577;SDS011;8401;52.528;13.340;2023-05-20T06:41:37;6.47;;;4.63;;
16577;SDS011;8401;52.528;13.340;2023-05-20T06:44:03;7.30;;;4.60;;
16577;SDS011;8401;52.528;13.340;2023-05-20T06:46:30;8.07;;;4.37;;
16577;SDS011;8401;52.528;13.340;2023-05-20T06:48:56;7.60;;;4.57;;
16577;SDS011;8401;52.528;13.340;2023-05-20T06:51:21;8.50;;;4.70;;
16577;SDS011;8401;52.528;13.340;2023-05-20T06:53:47;6.53;;;4.20;;
16577;SDS011;8401;52.528;13.340;2023-05-20T06:56:13;7.77;;;4.50;;
16577;SDS011;8401;52.528;13.340;2023-05-20T06:58:40;5.73;;;4.23;;
16577;SDS011;8401;52.528;13.340;2023-05-20T07:01:05;6.87;;;4.93;;
16577;SDS011;8401;52.528;13.340;2023-05-20T07:03:31;6.10;;;4.27;;
16577;SDS011;8401;52.528;13.340;2023-05-20T07:05:57;7.03;;;4.40;;
16577;SDS011;8401;52.528;13.340;2023-05-20T07:08:23;9.37;;;5.00;;
16577;SDS011;8401;52.528;13.340;2023-05-20T07:10:48;12.63;;;4.70;;
16577;SDS011;8401;52.528;13.340;2023-05-20T07:13:14;7.60;;;4.47;;
16577;SDS011;8401;52.528;13.340;2023-05-20T07:15:39;6.50;;;4.30;;
16577;SDS011;8401;52.528;13.340;2023-05-20T07:18:05;7.07;;;4.47;;
16577;SDS011;8401;52.528;13.340;2023-05-20T07:20:31;8.17;;;4.90;;
16577;SDS011;8401;52.528;13.340;2023-05-20T07:22:56;7.63;;;5.50;;
16577;SDS011;8401;52.528;13.340;2023-05-20T07:25:22;7.23;;;4.83;;
16577;SDS011;8401;52.528;13.340;2023-05-20T07:27:48;7.97;;;5.03;;
16577;SDS011;8401;52.528;13.340;2023-05-20T07:30:13;5.90;;;4.57;;
16577;SDS011;8401;52.528;13.340;2023-05-20T07:32:39;6.13;;;4.87;;
16577;SDS011;8401;52.528;13.340;2023-05-20T07:35:05;7.67;;;4.13;;
16577;SDS011;8401;52.528;13.340;2023-05-20T07:37:30;5.47;;;4.10;;
16577;SDS011;8401;52.528;13.340;2023-05-20T07:39:56;6.70;;;4.63;;
16577;SDS011;8401;52.528;13.340;2023-05-20T07:42:22;8.73;;;4.87;;
16577;SDS011;8401;52.528;13.340;2023-05-20T07:44:47;7.80;;;4.90;;
16577;SDS011;8401;52.528;13.340;2023-05-20T07:47:13;7.60;;;5.03;;
16577;SDS011;8401;52.528;13.340;2023-05-20T07:49:38;6.23;;;5.30;;
16577;SDS011;8401;52.528;13.340;2023-05-20T07:52:04;6.33;;;4.50;;
16577;SDS011;8401;52.528;13.340;2023-05-20T07:54:30;7.67;;;4.60;;
16577;SDS011;8401;52.528;13.340;2023-05-20T07:56:55;7.17;;;4.43;;
16577;SDS011;8401;52.528;13.340;2023-05-20T07:59:21;6.43;;;4.30;;
16577;SDS011;8401;52.528;13.340;2023-05-20T08:01:47;6.73;;;4.63;;
16577;SDS011;8401;52.528;13.340;2023-05-20T08:04:13;7.73;;;4.60;;
16577;SDS011;8401;52.528;13.340;2023-05-20T08:06:39;5.73;;;4.80;;
16577;SDS011;8401;52.528;13.340;2023-05-20T08:09:05;6.43;;;4.93;;
16577;SDS011;8401;52.528;13.340;2023-05-20T08:11:31;5.60;;;4.83;;
16577;SDS011;8401;52.528;13.340;2023-05-20T08:13:57;6.23;;;4.33;;
16577;SDS011;8401;52.528;13.340;2023-05-20T08:16:22;6.70;;;4.47;;
16577;SDS011;8401;52.528;13.340;2023-05-20T08:18:48;7.60;;;4.67;;
16577;SDS011;8401;52.528;13.340;2023-05-20T08:21:13;6.50;;;4.80;;
16577;SDS011;8401;52.528;13.340;2023-05-20T08:23:39;7.27;;;4.60;;
16577;SDS011;8401;52.528;13.340;2023-05-20T08:26:05;6.10;;;4.17;;
16577;SDS011;8401;52.528;13.340;2023-05-20T08:28:31;4.87;;;3.73;;
16577;SDS011;8401;52.528;13.340;2023-05-20T08:30:57;7.73;;;5.00;;
16577;SDS011;8401;52.528;13.340;2023-05-20T08:33:25;5.70;;;4.20;;
16577;SDS011;8401;52.528;13.340;2023-05-20T08:35:51;5.23;;;4.00;;
16577;SDS011;8401;52.528;13.340;2023-05-20T08:38:17;8.57;;;4.70;;
16577;SDS011;8401;52.528;13.340;2023-05-20T08:40:42;5.70;;;4.30;;
16577;SDS011;8401;52.528;13.340;2023-05-20T08:43:08;5.27;;;4.53;;
16577;SDS011;8401;52.528;13.340;2023-05-20T08:45:36;8.23;;;4.60;;
16577;SDS011;8401;52.528;13.340;2023-05-20T08:48:02;7.33;;;4.57;;
16577;SDS011;8401;52.528;13.340;2023-05-20T08:50:31;7.73;;;4.43;;
16577;SDS011;8401;52.528;13.340;2023-05-20T08:52:57;7.37;;;5.10;;
16577;SDS011;8401;52.528;13.340;2023-05-20T08:57:50;6.00;;;4.63;;
16577;SDS011;8401;52.528;13.340;2023-05-20T09:00:22;7.60;;;4.30;;
16577;SDS011;8401;52.528;13.340;2023-05-20T09:02:51;5.33;;;4.43;;
16577;SDS011;8401;52.528;13.340;2023-05-20T09:05:17;7.17;;;4.80;;
16577;SDS011;8401;52.528;13.340;2023-05-20T09:07:43;6.30;;;3.90;;
16577;SDS011;8401;52.528;13.340;2023-05-20T09:10:08;5.77;;;4.27;;
16577;SDS011;8401;52.528;13.340;2023-05-20T09:12:35;5.67;;;4.90;;
16577;SDS011;8401;52.528;13.340;2023-05-20T09:15:01;6.13;;;4.80;;
16577;SDS011;8401;52.528;13.340;2023-05-20T09:17:27;5.90;;;5.07;;
16577;SDS011;8401;52.528;13.340;2023-05-20T09:19:53;7.00;;;4.50;;
16577;SDS011;8401;52.528;13.340;2023-05-20T09:22:25;6.00;;;4.50;;
16577;SDS011;8401;52.528;13.340;2023-05-20T09:24:52;5.77;;;4.37;;
16577;SDS011;8401;52.528;13.340;2023-05-20T09:27:18;7.03;;;4.60;;
16577;SDS011;8401;52.528;13.340;2023-05-20T09:29:48;7.33;;;5.30;;
16577;SDS011;8401;52.528;13.340;2023-05-20T09:32:14;10.63;;;7.37;;
16577;SDS011;8401;52.528;13.340;2023-05-20T09:34:40;7.57;;;6.10;;
16577;SDS011;8401;52.528;13.340;2023-05-20T09:37:07;7.13;;;5.27;;
16577;SDS011;8401;52.528;13.340;2023-05-20T09:39:38;6.30;;;5.00;;
16577;SDS011;8401;52.528;13.340;2023-05-20T09:42:21;6.23;;;4.70;;
16577;SDS011;8401;52.528;13.340;2023-05-20T09:44:59;8.67;;;5.70;;
16577;SDS011;8401;52.528;13.340;2023-05-20T09:47:28;11.70;;;7.00;;
16577;SDS011;8401;52.528;13.340;2023-05-20T09:49:55;8.67;;;5.20;;
16577;SDS011;8401;52.528;13.340;2023-05-20T09:52:21;6.47;;;5.03;;
16577;SDS011;8401;52.528;13.340;2023-05-20T09:54:47;9.53;;;7.00;;
16577;SDS011;8401;52.528;13.340;2023-05-20T09:57:15;11.73;;;6.83;;
16577;SDS011;8401;52.528;13.340;2023-05-20T09:59:41;7.90;;;6.03;;
16577;SDS011;8401;52.528;13.340;2023-05-20T10:02:10;7.77;;;5.87;;
16577;SDS011;8401;52.528;13.340;2023-05-20T10:04:37;8.73;;;7.17;;
16577;SDS011;8401;52.528;13.340;2023-05-20T10:20:50;9.90;;;7.30;;
16577;SDS011;8401;52.528;13.340;2023-05-20T10:23:28;13.20;;;8.10;;
16577;SDS011;8401;52.528;13.340;2023-05-20T10:25:55;16.30;;;10.07;;
16577;SDS011;8401;52.528;13.340;2023-05-20T10:28:29;13.67;;;8.83;;
16577;SDS011;8401;52.528;13.340;2023-05-20T10:30:57;12.17;;;8.43;;
16577;SDS011;8401;52.528;13.340;2023-05-20T10:33:26;8.03;;;6.50;;
16577;SDS011;8401;52.528;13.340;2023-05-20T10:35:52;12.63;;;6.13;;
16577;SDS011;8401;52.528;13.340;2023-05-20T10:38:19;9.43;;;6.23;;
16577;SDS011;8401;52.528;13.340;2023-05-20T10:40:46;10.43;;;6.33;;
16577;SDS011;8401;52.528;13.340;2023-05-20T10:43:12;9.30;;;7.20;;
16577;SDS011;8401;52.528;13.340;2023-05-20T10:45:50;8.10;;;6.43;;
16577;SDS011;8401;52.528;13.340;2023-05-20T10:48:24;8.10;;;6.37;;
16577;SDS011;8401;52.528;13.340;2023-05-20T10:50:58;9.07;;;6.50;;
16577;SDS011;8401;52.528;13.340;2023-05-20T10:53:28;9.20;;;6.67;;
16577;SDS011;8401;52.528;13.340;2023-05-20T10:56:02;9.43;;;6.37;;
16577;SDS011;8401;52.528;13.340;2023-05-20T10:58:34;9.10;;;6.60;;
16577;SDS011;8401;52.528;13.340;2023-05-20T11:01:01;7.83;;;6.17;;
16577;SDS011;8401;52.528;13.340;2023-05-20T11:03:27;8.23;;;6.07;;
16577;SDS011;8401;52.528;13.340;2023-05-20T11:05:53;9.23;;;6.87;;
16577;SDS011;8401;52.528;13.340;2023-05-20T11:08:19;12.27;;;6.97;;
16577;SDS011;8401;52.528;13.340;2023-05-20T11:10:45;7.37;;;6.17;;
16577;SDS011;8401;52.528;13.340;2023-05-20T11:13:11;7.60;;;6.23;;
16577;SDS011;8401;52.528;13.340;2023-05-20T11:15:38;8.03;;;6.63;;
16577;SDS011;8401;52.528;13.340;2023-05-20T11:18:04;9.50;;;7.33;;
16577;SDS011;8401;52.528;13.340;2023-05-20T11:20:30;10.50;;;7.17;;
16577;SDS011;8401;52.528;13.340;2023-05-20T11:22:59;8.23;;;6.40;;
16577;SDS011;8401;52.528;13.340;2023-05-20T11:25:26;9.50;;;6.03;;
16577;SDS011;8401;52.528;13.340;2023-05-20T11:27:53;9.00;;;6.13;;
16577;SDS011;8401;52.528;13.340;2023-05-20T11:30:19;9.07;;;6.60;;
16577;SDS011;8401;52.528;13.340;2023-05-20T11:33:01;7.93;;;6.23;;
16577;SDS011;8401;52.528;13.340;2023-05-20T11:35:28;8.43;;;6.23;;
16577;SDS011;8401;52.528;13.340;2023-05-20T11:38:04;9.27;;;6.73;;
16577;SDS011;8401;52.528;13.340;2023-05-20T11:40:33;10.97;;;6.27;;
16577;SDS011;8401;52.528;13.340;2023-05-20T11:43:00;8.40;;;6.40;;
16577;SDS011;8401;52.528;13.340;2023-05-20T11:45:26;8.23;;;6.30;;
16577;SDS011;8401;52.528;13.340;2023-05-20T11:48:03;8.65;;;6.38;;
16577;SDS011;8401;52.528;13.340;2023-05-20T11:50:33;5.78;;;5.00;;
16577;SDS011;8401;52.528;13.340;2023-05-20T11:53:04;8.43;;;6.15;;
16577;SDS011;8401;52.528;13.340;2023-05-20T11:55:31;10.50;;;6.32;;
16577;SDS011;8401;52.528;13.340;2023-05-20T11:57:57;8.57;;;6.53;;
16577;SDS011;8401;52.528;13.340;2023-05-20T12:00:24;8.32;;;6.30;;
16577;SDS011;8401;52.528;13.340;2023-05-20T12:02:49;8.90;;;5.93;;
16577;SDS011;8401;52.528;13.340;2023-05-20T12:05:15;8.65;;;5.97;;
16577;SDS011;8401;52.528;13.340;2023-05-20T12:07:41;8.10;;;6.00;;
16577;SDS011;8401;52.528;13.340;2023-05-20T12:10:08;8.45;;;6.53;;
16577;SDS011;8401;52.528;13.340;2023-05-20T12:12:34;8.82;;;6.55;;
16577;SDS011;8401;52.528;13.340;2023-05-20T12:15:01;9.87;;;7.07;;
16577;SDS011;8401;52.528;13.340;2023-05-20T12:17:28;9.70;;;6.53;;
16577;SDS011;8401;52.528;13.340;2023-05-20T12:19:56;10.47;;;6.83;;
16577;SDS011;8401;52.528;13.340;2023-05-20T12:22:21;7.40;;;5.87;;
16577;SDS011;8401;52.528;13.340;2023-05-20T12:24:47;8.83;;;6.50;;
16577;SDS011;8401;52.528;13.340;2023-05-20T12:27:13;9.55;;;6.80;;
16577;SDS011;8401;52.528;13.340;2023-05-20T12:29:39;8.45;;;6.57;;
16577;SDS011;8401;52.528;13.340;2023-05-20T12:32:05;10.18;;;6.60;;
16577;SDS011;8401;52.528;13.340;2023-05-20T12:34:31;7.63;;;6.35;;
16577;SDS011;8401;52.528;13.340;2023-05-20T12:36:57;9.60;;;6.72;;
16577;SDS011;8401;52.528;13.340;2023-05-20T12:39:23;10.13;;;7.47;;
16577;SDS011;8401;52.528;13.340;2023-05-20T12:41:48;11.05;;;7.18;;
16577;SDS011;8401;52.528;13.340;2023-05-20T12:44:14;9.70;;;7.45;;
16577;SDS011;8401;52.528;13.340;2023-05-20T12:46:39;8.50;;;7.60;;
16577;SDS011;8401;52.528;13.340;2023-05-20T12:49:06;9.57;;;7.68;;
16577;SDS011;8401;52.528;13.340;2023-05-20T12:51:31;11.63;;;8.23;;
16577;SDS011;8401;52.528;13.340;2023-05-20T12:53:57;9.88;;;6.78;;
16577;SDS011;8401;52.528;13.340;2023-05-20T12:56:23;13.85;;;8.52;;
16577;SDS011;8401;52.528;13.340;2023-05-20T12:58:50;10.70;;;6.35;;
16577;SDS011;8401;52.528;13.340;2023-05-20T13:01:16;7.93;;;6.78;;
16577;SDS011;8401;52.528;13.340;2023-05-20T13:03:41;10.63;;;7.70;;
16577;SDS011;8401;52.528;13.340;2023-05-20T13:06:07;7.65;;;6.57;;
16577;SDS011;8401;52.528;13.340;2023-05-20T13:08:32;9.52;;;7.47;;
16577;SDS011;8401;52.528;13.340;2023-05-20T13:10:58;11.70;;;8.77;;
16577;SDS011;8401;52.528;13.340;2023-05-20T13:13:24;10.25;;;7.80;;
16577;SDS011;8401;52.528;13.340;2023-05-20T13:15:49;9.40;;;7.70;;
16577;SDS011;8401;52.528;13.340;2023-05-20T13:18:15;9.25;;;8.00;;
16577;SDS011;8401;52.528;13.340;2023-05-20T13:20:42;13.32;;;9.68;;
16577;SDS011;8401;52.528;13.340;2023-05-20T13:23:07;10.65;;;7.82;;
16577;SDS011;8401;52.528;13.340;2023-05-20T13:25:33;10.93;;;8.13;;
16577;SDS011;8401;52.528;13.340;2023-05-20T13:28:00;10.85;;;6.95;;
16577;SDS011;8401;52.528;13.340;2023-05-20T13:30:26;14.55;;;9.07;;
16577;SDS011;8401;52.528;13.340;2023-05-20T13:32:52;8.82;;;7.32;;
16577;SDS011;8401;52.528;13.340;2023-05-20T13:35:18;8.48;;;6.30;;
16577;SDS011;8401;52.528;13.340;2023-05-20T13:37:44;8.32;;;6.72;;
16577;SDS011;8401;52.528;13.340;2023-05-20T13:40:10;8.65;;;6.75;;
16577;SDS011;8401;52.528;13.340;2023-05-20T13:42:36;6.88;;;6.18;;
16577;SDS011;8401;52.528;13.340;2023-05-20T13:45:02;11.43;;;6.50;;
16577;SDS011;8401;52.528;13.340;2023-05-20T13:47:28;8.77;;;6.95;;
16577;SDS011;8401;52.528;13.340;2023-05-20T13:49:53;9.75;;;6.88;;
16577;SDS011;8401;52.528;13.340;2023-05-20T13:52:19;9.20;;;7.38;;
16577;SDS011;8401;52.528;13.340;2023-05-20T13:54:45;8.43;;;6.93;;
16577;SDS011;8401;52.528;13.340;2023-05-20T13:57:12;9.27;;;6.85;;
16577;SDS011;8401;52.528;13.340;2023-05-20T13:59:38;9.65;;;7.75;;
16577;SDS011;8401;52.528;13.340;2023-05-20T14:02:04;16.33;;;11.85;;
16577;SDS011;8401;52.528;13.340;2023-05-20T14:04:30;9.18;;;7.43;;
16577;SDS011;8401;52.528;13.340;2023-05-20T14:07:02;9.45;;;7.65;;
16577;SDS011;8401;52.528;13.340;2023-05-20T14:09:28;9.75;;;6.95;;
16577;SDS011;8401;52.528;13.340;2023-05-20T14:11:54;9.43;;;6.82;;
16577;SDS011;8401;52.528;13.340;2023-05-20T14:14:19;6.55;;;5.88;;
16577;SDS011;8401;52.528;13.340;2023-05-20T14:16:45;8.52;;;6.43;;
16577;SDS011;8401;52.528;13.340;2023-05-20T14:19:11;7.43;;;6.00;;
16577;SDS011;8401;52.528;13.340;2023-05-20T14:21:37;8.50;;;6.43;;
16577;SDS011;8401;52.528;13.340;2023-05-20T14:24:02;8.98;;;6.53;;
16577;SDS011;8401;52.528;13.340;2023-05-20T14:26:28;7.78;;;6.25;;
16577;SDS011;8401;52.528;13.340;2023-05-20T14:28:53;9.55;;;7.18;;
16577;SDS011;8401;52.528;13.340;2023-05-20T14:31:19;8.25;;;5.85;;
16577;SDS011;8401;52.528;13.340;2023-05-20T14:33:45;7.65;;;6.78;;
16577;SDS011;8401;52.528;13.340;2023-05-20T14:36:10;6.80;;;6.07;;
16577;SDS011;8401;52.528;13.340;2023-05-20T14:38:36;8.48;;;7.32;;
16577;SDS011;8401;52.528;13.340;2023-05-20T14:41:02;9.27;;;6.72;;
16577;SDS011;8401;52.528;13.340;2023-05-20T14:43:27;6.50;;;5.72;;
16577;SDS011;8401;52.528;13.340;2023-05-20T14:45:54;6.50;;;5.90;;
16577;SDS011;8401;52.528;13.340;2023-05-20T14:48:19;7.97;;;5.82;;
16577;SDS011;8401;52.528;13.340;2023-05-20T14:50:45;6.72;;;5.80;;
16577;SDS011;8401;52.528;13.340;2023-05-20T14:53:10;8.65;;;7.10;;
16577;SDS011;8401;52.528;13.340;2023-05-20T14:55:36;7.30;;;5.90;;
16577;SDS011;8401;52.528;13.340;2023-05-20T14:58:03;9.45;;;6.63;;
16577;SDS011;8401;52.528;13.340;2023-05-20T15:00:29;9.27;;;6.55;;